sensor_id;sensor_type;location;lat;lon;timestamp;P1;durP1;ratioP1;P2;durP2;ratioP2
44440;SDS011;30146;52.268;20.944;2023-04-01T00:00:51;20.50;;;10.80;;
44440;SDS011;30146;52.268;20.944;2023-04-01T00:03:20;20.30;;;11.50;;
44440;SDS011;30146;52.268;20.944;2023-04-01T00:05:50;19.70;;;11.50;;
44440;SDS011;30146;52.268;20.944;2023-04-01T00:08:18;17.30;;;11.20;;
44440;SDS011;30146;52.268;20.944;2023-04-01T00:10:46;19.00;;;12.90;;
44440;SDS011;30146;52.268;20.944;2023-04-01T00:13:14;18.90;;;12.50;;
44440;SDS011;30146;52.268;20.944;2023-04-01T00:15:43;19.50;;;12.60;;
44440;SDS011;30146;52.268;20.944;2023-04-01T00:18:11;17.60;;;12.80;;
44440;SDS011;30146;52.268;20.944;2023-04-01T00:20:43;25.40;;;16.30;;
44440;SDS011;30146;52.268;20.944;2023-04-01T00:23:12;25.70;;;16.00;;
44440;SDS011;30146;52.268;20.944;2023-04-01T00:25:40;25.10;;;15.80;;
44440;SDS011;30146;52.268;20.944;2023-04-01T00:28:08;24.60;;;15.30;;
44440;SDS011;30146;52.268;20.944;2023-04-01T00:30:37;17.20;;;13.90;;
44440;SDS011;30146;52.268;20.944;2023-04-01T00:33:05;23.30;;;13.60;;
44440;SDS011;30146;52.268;20.944;2023-04-01T00:35:33;25.10;;;14.30;;
44440;SDS011;30146;52.268;20.944;2023-04-01T00:38:01;19.20;;;14.20;;
44440;SDS011;30146;52.268;20.944;2023-04-01T00:40:31;18.90;;;14.00;;
44440;SDS011;30146;52.268;20.944;2023-04-01T00:43:01;22.50;;;13.70;;
44440;SDS011;30146;52.268;20.944;2023-04-01T00:45:37;19.50;;;13.80;;
44440;SDS011;30146;52.268;20.944;2023-04-01T00:48:08;19.90;;;14.40;;
44440;SDS011;30146;52.268;20.944;2023-04-01T00:50:40;20.10;;;13.60;;
44440;SDS011;30146;52.268;20.944;2023-04-01T00:53:11;22.80;;;14.20;;
44440;SDS011;30146;52.268;20.944;2023-04-01T00:55:41;19.60;;;14.90;;
44440;SDS011;30146;52.268;20.944;2023-04-01T00:58:17;18.90;;;14.20;;
44440;SDS011;30146;52.268;20.944;2023-04-01T01:00:48;18.70;;;14.40;;
44440;SDS011;30146;52.268;20.944;2023-04-01T01:03:17;26.40;;;15.10;;
44440;SDS011;30146;52.268;20.944;2023-04-01T01:05:54;21.30;;;14.10;;
44440;SDS011;30146;52.268;20.944;2023-04-01T01:08:38;22.90;;;15.50;;
44440;SDS011;30146;52.268;20.944;2023-04-01T01:11:16;18.00;;;14.20;;
44440;SDS011;30146;52.268;20.944;2023-04-01T01:14:10;25.10;;;15.50;;
44440;SDS011;30146;52.268;20.944;2023-04-01T01:16:50;19.50;;;15.10;;
44440;SDS011;30146;52.268;20.944;2023-04-01T01:19:33;24.40;;;15.50;;
44440;SDS011;30146;52.268;20.944;2023-04-01T01:25:25;30.30;;;21.40;;
44440;SDS011;30146;52.268;20.944;2023-04-01T01:28:21;31.80;;;21.50;;
44440;SDS011;30146;52.268;20.944;2023-04-01T01:31:07;24.30;;;19.30;;
44440;SDS011;30146;52.268;20.944;2023-04-01T01:33:55;23.50;;;16.20;;
44440;SDS011;30146;52.268;20.944;2023-04-01T01:36:33;21.60;;;14.50;;
44440;SDS011;30146;52.268;20.944;2023-04-01T01:39:07;23.20;;;16.50;;
44440;SDS011;30146;52.268;20.944;2023-04-01T01:41:37;26.40;;;17.80;;
44440;SDS011;30146;52.268;20.944;2023-04-01T01:44:09;36.00;;;24.50;;
44440;SDS011;30146;52.268;20.944;2023-04-01T01:46:41;24.10;;;17.20;;
44440;SDS011;30146;52.268;20.944;2023-04-01T01:49:10;19.40;;;15.10;;
44440;SDS011;30146;52.268;20.944;2023-04-01T01:51:42;21.40;;;15.90;;
44440;SDS011;30146;52.268;20.944;2023-04-01T01:54:12;22.80;;;15.70;;
44440;SDS011;30146;52.268;20.944;2023-04-01T01:56:41;21.50;;;14.60;;
44440;SDS011;30146;52.268;20.944;2023-04-01T01:59:12;18.10;;;14.80;;
44440;SDS011;30146;52.268;20.944;2023-04-01T02:01:45;20.50;;;15.10;;
44440;SDS011;30146;52.268;20.944;2023-04-01T02:04:16;22.10;;;15.90;;
44440;SDS011;30146;52.268;20.944;2023-04-01T02:06:47;25.30;;;15.50;;
44440;SDS011;30146;52.268;20.944;2023-04-01T02:09:20;22.60;;;16.60;;
44440;SDS011;30146;52.268;20.944;2023-04-01T02:11:49;23.70;;;15.60;;
44440;SDS011;30146;52.268;20.944;2023-04-01T02:14:22;22.70;;;16.90;;
44440;SDS011;30146;52.268;20.944;2023-04-01T02:16:54;23.00;;;17.60;;
44440;SDS011;30146;52.268;20.944;2023-04-01T02:19:26;31.70;;;18.60;;
44440;SDS011;30146;52.268;20.944;2023-04-01T02:21:59;24.40;;;17.50;;
44440;SDS011;30146;52.268;20.944;2023-04-01T02:24:31;25.10;;;17.70;;
44440;SDS011;30146;52.268;20.944;2023-04-01T02:27:02;25.00;;;17.90;;
44440;SDS011;30146;52.268;20.944;2023-04-01T02:29:34;26.70;;;18.50;;
44440;SDS011;30146;52.268;20.944;2023-04-01T02:32:06;26.60;;;17.10;;
44440;SDS011;30146;52.268;20.944;2023-04-01T02:34:36;26.60;;;17.10;;
44440;SDS011;30146;52.268;20.944;2023-04-01T02:37:04;30.50;;;18.50;;
44440;SDS011;30146;52.268;20.944;2023-04-01T02:39:32;26.50;;;19.60;;
44440;SDS011;30146;52.268;20.944;2023-04-01T02:42:00;28.20;;;19.00;;
44440;SDS011;30146;52.268;20.944;2023-04-01T02:44:28;27.40;;;19.20;;
44440;SDS011;30146;52.268;20.944;2023-04-01T02:46:58;26.90;;;19.50;;
44440;SDS011;30146;52.268;20.944;2023-04-01T02:49:26;26.50;;;18.10;;
44440;SDS011;30146;52.268;20.944;2023-04-01T02:51:54;28.30;;;18.50;;
44440;SDS011;30146;52.268;20.944;2023-04-01T02:54:22;25.40;;;18.40;;
44440;SDS011;30146;52.268;20.944;2023-04-01T02:56:50;25.10;;;17.80;;
44440;SDS011;30146;52.268;20.944;2023-04-01T02:59:18;24.00;;;18.30;;
44440;SDS011;30146;52.268;20.944;2023-04-01T03:01:46;23.40;;;18.20;;
44440;SDS011;30146;52.268;20.944;2023-04-01T03:04:15;26.30;;;19.20;;
44440;SDS011;30146;52.268;20.944;2023-04-01T03:06:43;29.60;;;18.60;;
44440;SDS011;30146;52.268;20.944;2023-04-01T03:09:11;24.70;;;18.10;;
44440;SDS011;30146;52.268;20.944;2023-04-01T03:11:39;27.30;;;18.00;;
44440;SDS011;30146;52.268;20.944;2023-04-01T03:14:07;25.90;;;18.10;;
44440;SDS011;30146;52.268;20.944;2023-04-01T03:16:35;31.20;;;20.10;;
44440;SDS011;30146;52.268;20.944;2023-04-01T03:19:03;32.70;;;24.40;;
44440;SDS011;30146;52.268;20.944;2023-04-01T03:21:31;31.30;;;20.90;;
44440;SDS011;30146;52.268;20.944;2023-04-01T03:24:00;23.30;;;17.90;;
44440;SDS011;30146;52.268;20.944;2023-04-01T03:26:28;25.30;;;18.30;;
44440;SDS011;30146;52.268;20.944;2023-04-01T03:28:57;26.90;;;20.10;;
44440;SDS011;30146;52.268;20.944;2023-04-01T03:31:25;26.80;;;20.30;;
44440;SDS011;30146;52.268;20.944;2023-04-01T03:33:54;27.00;;;19.00;;
44440;SDS011;30146;52.268;20.944;2023-04-01T03:36:22;23.90;;;18.50;;
44440;SDS011;30146;52.268;20.944;2023-04-01T03:38:51;24.20;;;16.90;;
44440;SDS011;30146;52.268;20.944;2023-04-01T03:41:22;24.40;;;17.50;;
44440;SDS011;30146;52.268;20.944;2023-04-01T03:43:50;21.50;;;17.00;;
44440;SDS011;30146;52.268;20.944;2023-04-01T03:46:18;23.00;;;16.30;;
44440;SDS011;30146;52.268;20.944;2023-04-01T03:48:46;24.70;;;17.70;;
44440;SDS011;30146;52.268;20.944;2023-04-01T03:51:14;21.30;;;16.90;;
44440;SDS011;30146;52.268;20.944;2023-04-01T03:53:42;24.40;;;17.50;;
44440;SDS011;30146;52.268;20.944;2023-04-01T03:56:11;24.00;;;16.60;;
44440;SDS011;30146;52.268;20.944;2023-04-01T03:58:40;24.30;;;15.60;;
44440;SDS011;30146;52.268;20.944;2023-04-01T04:01:16;22.30;;;15.20;;
44440;SDS011;30146;52.268;20.944;2023-04-01T04:03:46;18.60;;;14.00;;
44440;SDS011;30146;52.268;20.944;2023-04-01T04:06:16;27.50;;;17.10;;
44440;SDS011;30146;52.268;20.944;2023-04-01T04:08:46;47.00;;;34.50;;
44440;SDS011;30146;52.268;20.944;2023-04-01T04:11:15;35.60;;;20.60;;
44440;SDS011;30146;52.268;20.944;2023-04-01T04:13:44;24.90;;;15.80;;
44440;SDS011;30146;52.268;20.944;2023-04-01T04:16:12;23.90;;;16.30;;
44440;SDS011;30146;52.268;20.944;2023-04-01T04:18:43;21.10;;;15.20;;
44440;SDS011;30146;52.268;20.944;2023-04-01T04:21:12;22.50;;;17.00;;
44440;SDS011;30146;52.268;20.944;2023-04-01T04:23:41;22.10;;;15.60;;
44440;SDS011;30146;52.268;20.944;2023-04-01T04:26:11;22.00;;;14.80;;
44440;SDS011;30146;52.268;20.944;2023-04-01T04:28:41;20.30;;;14.80;;
44440;SDS011;30146;52.268;20.944;2023-04-01T04:31:09;20.20;;;16.30;;
44440;SDS011;30146;52.268;20.944;2023-04-01T04:33:40;18.20;;;15.10;;
44440;SDS011;30146;52.268;20.944;2023-04-01T04:36:09;20.70;;;15.80;;
44440;SDS011;30146;52.268;20.944;2023-04-01T04:38:37;18.70;;;15.20;;
44440;SDS011;30146;52.268;20.944;2023-04-01T04:41:08;19.00;;;15.40;;
44440;SDS011;30146;52.268;20.944;2023-04-01T04:43:38;19.30;;;14.50;;
44440;SDS011;30146;52.268;20.944;2023-04-01T04:46:06;20.90;;;14.70;;
44440;SDS011;30146;52.268;20.944;2023-04-01T04:48:35;17.10;;;14.00;;
44440;SDS011;30146;52.268;20.944;2023-04-01T04:51:03;20.00;;;14.40;;
44440;SDS011;30146;52.268;20.944;2023-04-01T04:53:32;19.70;;;13.30;;
44440;SDS011;30146;52.268;20.944;2023-04-01T04:56:00;17.90;;;13.50;;
44440;SDS011;30146;52.268;20.944;2023-04-01T04:58:37;16.80;;;11.50;;
44440;SDS011;30146;52.268;20.944;2023-04-01T05:01:08;25.50;;;18.90;;
44440;SDS011;30146;52.268;20.944;2023-04-01T05:03:38;16.60;;;13.10;;
44440;SDS011;30146;52.268;20.944;2023-04-01T05:06:07;14.90;;;12.30;;
44440;SDS011;30146;52.268;20.944;2023-04-01T05:08:37;15.00;;;11.50;;
44440;SDS011;30146;52.268;20.944;2023-04-01T05:11:06;16.60;;;11.70;;
44440;SDS011;30146;52.268;20.944;2023-04-01T05:13:41;17.30;;;11.00;;
44440;SDS011;30146;52.268;20.944;2023-04-01T05:16:09;13.30;;;10.50;;
44440;SDS011;30146;52.268;20.944;2023-04-01T05:18:38;15.40;;;10.90;;
44440;SDS011;30146;52.268;20.944;2023-04-01T05:21:08;16.70;;;12.20;;
44440;SDS011;30146;52.268;20.944;2023-04-01T05:23:37;14.40;;;10.20;;
44440;SDS011;30146;52.268;20.944;2023-04-01T05:26:06;14.20;;;10.40;;
44440;SDS011;30146;52.268;20.944;2023-04-01T05:28:37;12.90;;;10.70;;
44440;SDS011;30146;52.268;20.944;2023-04-01T05:31:05;13.00;;;10.10;;
44440;SDS011;30146;52.268;20.944;2023-04-01T05:33:38;12.70;;;9.70;;
44440;SDS011;30146;52.268;20.944;2023-04-01T05:36:08;11.60;;;9.80;;
44440;SDS011;30146;52.268;20.944;2023-04-01T05:38:37;14.40;;;10.00;;
44440;SDS011;30146;52.268;20.944;2023-04-01T05:41:08;13.10;;;9.00;;
44440;SDS011;30146;52.268;20.944;2023-04-01T05:43:39;11.30;;;9.80;;
44440;SDS011;30146;52.268;20.944;2023-04-01T05:46:27;13.50;;;9.60;;
44440;SDS011;30146;52.268;20.944;2023-04-01T05:49:17;11.40;;;9.40;;
44440;SDS011;30146;52.268;20.944;2023-04-01T05:51:49;10.30;;;8.60;;
44440;SDS011;30146;52.268;20.944;2023-04-01T05:54:18;12.20;;;8.30;;
44440;SDS011;30146;52.268;20.944;2023-04-01T05:56:46;16.60;;;9.80;;
44440;SDS011;30146;52.268;20.944;2023-04-01T05:59:16;10.70;;;8.40;;
44440;SDS011;30146;52.268;20.944;2023-04-01T06:01:46;8.70;;;7.80;;
44440;SDS011;30146;52.268;20.944;2023-04-01T06:04:14;10.80;;;8.60;;
44440;SDS011;30146;52.268;20.944;2023-04-01T06:06:44;11.20;;;8.50;;
44440;SDS011;30146;52.268;20.944;2023-04-01T06:09:14;10.30;;;7.90;;
44440;SDS011;30146;52.268;20.944;2023-04-01T06:12:04;10.80;;;8.00;;
44440;SDS011;30146;52.268;20.944;2023-04-01T06:14:56;10.50;;;7.30;;
44440;SDS011;30146;52.268;20.944;2023-04-01T06:21:27;10.50;;;7.40;;
44440;SDS011;30146;52.268;20.944;2023-04-01T06:24:49;8.30;;;6.40;;
44440;SDS011;30146;52.268;20.944;2023-04-01T06:27:52;7.30;;;6.50;;
44440;SDS011;30146;52.268;20.944;2023-04-01T06:30:31;14.70;;;9.00;;
44440;SDS011;30146;52.268;20.944;2023-04-01T06:33:11;11.70;;;7.60;;
44440;SDS011;30146;52.268;20.944;2023-04-01T06:47:54;6.90;;;5.30;;
44440;SDS011;30146;52.268;20.944;2023-04-01T06:50:54;5.50;;;4.50;;
44440;SDS011;30146;52.268;20.944;2023-04-01T06:54:09;5.30;;;4.40;;
44440;SDS011;30146;52.268;20.944;2023-04-01T06:57:19;9.00;;;4.20;;
44440;SDS011;30146;52.268;20.944;2023-04-01T06:59:58;5.70;;;3.90;;
44440;SDS011;30146;52.268;20.944;2023-04-01T07:02:36;14.80;;;7.40;;
44440;SDS011;30146;52.268;20.944;2023-04-01T07:05:12;7.30;;;4.40;;
44440;SDS011;30146;52.268;20.944;2023-04-01T07:07:45;4.70;;;3.70;;
44440;SDS011;30146;52.268;20.944;2023-04-01T07:10:35;4.50;;;3.50;;
44440;SDS011;30146;52.268;20.944;2023-04-01T07:13:39;5.30;;;3.30;;
44440;SDS011;30146;52.268;20.944;2023-04-01T07:16:19;7.50;;;3.90;;
44440;SDS011;30146;52.268;20.944;2023-04-01T07:18:56;5.30;;;3.80;;
44440;SDS011;30146;52.268;20.944;2023-04-01T07:21:44;5.60;;;4.40;;
44440;SDS011;30146;52.268;20.944;2023-04-01T07:24:26;6.20;;;4.20;;
44440;SDS011;30146;52.268;20.944;2023-04-01T07:27:08;8.70;;;6.20;;
44440;SDS011;30146;52.268;20.944;2023-04-01T07:29:41;7.90;;;6.10;;
44440;SDS011;30146;52.268;20.944;2023-04-01T07:32:16;8.70;;;7.10;;
44440;SDS011;30146;52.268;20.944;2023-04-01T07:34:58;7.80;;;6.80;;
44440;SDS011;30146;52.268;20.944;2023-04-01T07:37:41;9.00;;;7.70;;
44440;SDS011;30146;52.268;20.944;2023-04-01T07:40:26;9.50;;;8.50;;
44440;SDS011;30146;52.268;20.944;2023-04-01T07:43:11;10.50;;;9.40;;
44440;SDS011;30146;52.268;20.944;2023-04-01T07:51:01;15.80;;;12.90;;
44440;SDS011;30146;52.268;20.944;2023-04-01T07:57:08;16.70;;;12.70;;
44440;SDS011;30146;52.268;20.944;2023-04-01T08:09:09;16.30;;;13.20;;
44440;SDS011;30146;52.268;20.944;2023-04-01T08:16:52;16.20;;;12.60;;
44440;SDS011;30146;52.268;20.944;2023-04-01T08:19:45;16.90;;;14.20;;
44440;SDS011;30146;52.268;20.944;2023-04-01T08:25:49;14.70;;;12.70;;
44440;SDS011;30146;52.268;20.944;2023-04-01T08:28:27;17.40;;;12.90;;
44440;SDS011;30146;52.268;20.944;2023-04-01T08:31:10;16.50;;;12.70;;
44440;SDS011;30146;52.268;20.944;2023-04-01T08:33:46;13.30;;;11.30;;
44440;SDS011;30146;52.268;20.944;2023-04-01T08:36:24;14.30;;;12.10;;
44440;SDS011;30146;52.268;20.944;2023-04-01T08:39:29;13.50;;;10.60;;
44440;SDS011;30146;52.268;20.944;2023-04-01T08:42:30;12.40;;;10.50;;
44440;SDS011;30146;52.268;20.944;2023-04-01T08:45:27;9.60;;;8.10;;
44440;SDS011;30146;52.268;20.944;2023-04-01T08:48:31;12.50;;;7.90;;
44440;SDS011;30146;52.268;20.944;2023-04-01T08:51:24;8.60;;;7.30;;
44440;SDS011;30146;52.268;20.944;2023-04-01T08:57:18;8.60;;;6.60;;
44440;SDS011;30146;52.268;20.944;2023-04-01T09:00:41;9.50;;;6.80;;
44440;SDS011;30146;52.268;20.944;2023-04-01T09:03:43;8.60;;;6.50;;
44440;SDS011;30146;52.268;20.944;2023-04-01T09:06:33;8.30;;;7.00;;
44440;SDS011;30146;52.268;20.944;2023-04-01T09:09:29;12.20;;;10.80;;
44440;SDS011;30146;52.268;20.944;2023-04-01T09:15:14;12.80;;;9.70;;
44440;SDS011;30146;52.268;20.944;2023-04-01T09:18:15;10.10;;;7.80;;
44440;SDS011;30146;52.268;20.944;2023-04-01T09:24:27;7.20;;;5.80;;
44440;SDS011;30146;52.268;20.944;2023-04-01T09:27:27;7.40;;;6.40;;
44440;SDS011;30146;52.268;20.944;2023-04-01T09:33:21;7.00;;;5.30;;
44440;SDS011;30146;52.268;20.944;2023-04-01T09:36:21;5.90;;;5.30;;
44440;SDS011;30146;52.268;20.944;2023-04-01T09:42:13;6.20;;;5.20;;
44440;SDS011;30146;52.268;20.944;2023-04-01T09:45:09;6.00;;;5.20;;
44440;SDS011;30146;52.268;20.944;2023-04-01T09:50:33;5.80;;;5.20;;
44440;SDS011;30146;52.268;20.944;2023-04-01T09:53:14;8.80;;;5.30;;
44440;SDS011;30146;52.268;20.944;2023-04-01T09:59:15;13.20;;;5.70;;
44440;SDS011;30146;52.268;20.944;2023-04-01T10:05:43;6.70;;;6.10;;
44440;SDS011;30146;52.268;20.944;2023-04-01T10:08:34;9.00;;;6.90;;
44440;SDS011;30146;52.268;20.944;2023-04-01T10:11:24;6.60;;;5.80;;
44440;SDS011;30146;52.268;20.944;2023-04-01T10:14:28;8.10;;;6.20;;
44440;SDS011;30146;52.268;20.944;2023-04-01T10:23:29;6.10;;;3.90;;
44440;SDS011;30146;52.268;20.944;2023-04-01T10:30:01;7.20;;;5.50;;
44440;SDS011;30146;52.268;20.944;2023-04-01T10:36:14;7.00;;;5.00;;
44440;SDS011;30146;52.268;20.944;2023-04-01T10:52:03;7.50;;;5.10;;
44440;SDS011;30146;52.268;20.944;2023-04-01T10:55:17;7.70;;;5.60;;
44440;SDS011;30146;52.268;20.944;2023-04-01T10:58:28;5.60;;;5.10;;
44440;SDS011;30146;52.268;20.944;2023-04-01T11:05:08;5.50;;;5.00;;
44440;SDS011;30146;52.268;20.944;2023-04-01T11:08:31;8.20;;;4.70;;
44440;SDS011;30146;52.268;20.944;2023-04-01T11:11:35;8.70;;;5.30;;
44440;SDS011;30146;52.268;20.944;2023-04-01T11:23:55;11.90;;;6.50;;
44440;SDS011;30146;52.268;20.944;2023-04-01T11:26:51;7.40;;;6.20;;
44440;SDS011;30146;52.268;20.944;2023-04-01T11:32:39;6.20;;;5.50;;
44440;SDS011;30146;52.268;20.944;2023-04-01T11:35:23;5.70;;;4.90;;
44440;SDS011;30146;52.268;20.944;2023-04-01T11:38:06;5.10;;;4.60;;
44440;SDS011;30146;52.268;20.944;2023-04-01T11:40:53;8.40;;;5.40;;
44440;SDS011;30146;52.268;20.944;2023-04-01T11:44:07;3.40;;;3.00;;
44440;SDS011;30146;52.268;20.944;2023-04-01T11:50:32;3.50;;;3.10;;
44440;SDS011;30146;52.268;20.944;2023-04-01T11:53:20;5.10;;;3.40;;
44440;SDS011;30146;52.268;20.944;2023-04-01T11:56:09;4.10;;;3.50;;
44440;SDS011;30146;52.268;20.944;2023-04-01T11:59:02;3.40;;;3.10;;
44440;SDS011;30146;52.268;20.944;2023-04-01T12:01:56;4.20;;;2.50;;
44440;SDS011;30146;52.268;20.944;2023-04-01T12:04:58;2.50;;;2.10;;
44440;SDS011;30146;52.268;20.944;2023-04-01T12:07:45;2.20;;;1.60;;
44440;SDS011;30146;52.268;20.944;2023-04-01T12:10:32;1.90;;;1.70;;
44440;SDS011;30146;52.268;20.944;2023-04-01T12:13:10;1.60;;;1.50;;
44440;SDS011;30146;52.268;20.944;2023-04-01T12:15:56;2.30;;;1.40;;
44440;SDS011;30146;52.268;20.944;2023-04-01T12:18:38;2.70;;;1.70;;
44440;SDS011;30146;52.268;20.944;2023-04-01T12:21:17;2.50;;;1.80;;
44440;SDS011;30146;52.268;20.944;2023-04-01T12:24:05;1.80;;;1.60;;
44440;SDS011;30146;52.268;20.944;2023-04-01T12:26:56;1.60;;;1.50;;
44440;SDS011;30146;52.268;20.944;2023-04-01T12:32:44;2.10;;;1.40;;
44440;SDS011;30146;52.268;20.944;2023-04-01T12:35:25;2.10;;;1.50;;
44440;SDS011;30146;52.268;20.944;2023-04-01T12:38:07;1.90;;;1.70;;
44440;SDS011;30146;52.268;20.944;2023-04-01T12:40:54;2.40;;;1.50;;
44440;SDS011;30146;52.268;20.944;2023-04-01T12:43:49;2.30;;;2.00;;
44440;SDS011;30146;52.268;20.944;2023-04-01T12:46:45;3.90;;;1.70;;
44440;SDS011;30146;52.268;20.944;2023-04-01T12:49:32;2.50;;;1.90;;
44440;SDS011;30146;52.268;20.944;2023-04-01T12:52:14;4.30;;;2.70;;
44440;SDS011;30146;52.268;20.944;2023-04-01T12:55:02;2.00;;;1.80;;
44440;SDS011;30146;52.268;20.944;2023-04-01T12:58:08;9.40;;;2.50;;
44440;SDS011;30146;52.268;20.944;2023-04-01T13:04:08;2.00;;;1.70;;
44440;SDS011;30146;52.268;20.944;2023-04-01T13:07:04;3.10;;;2.20;;
44440;SDS011;30146;52.268;20.944;2023-04-01T13:09:53;2.40;;;2.10;;
44440;SDS011;30146;52.268;20.944;2023-04-01T13:12:43;2.50;;;1.90;;
44440;SDS011;30146;52.268;20.944;2023-04-01T13:15:29;2.60;;;2.20;;
44440;SDS011;30146;52.268;20.944;2023-04-01T13:18:10;5.80;;;3.30;;
44440;SDS011;30146;52.268;20.944;2023-04-01T13:21:16;6.30;;;4.10;;
44440;SDS011;30146;52.268;20.944;2023-04-01T13:23:59;7.70;;;5.80;;
44440;SDS011;30146;52.268;20.944;2023-04-01T13:26:53;5.80;;;3.00;;
44440;SDS011;30146;52.268;20.944;2023-04-01T13:29:31;4.40;;;3.10;;
44440;SDS011;30146;52.268;20.944;2023-04-01T13:32:17;5.60;;;3.10;;
44440;SDS011;30146;52.268;20.944;2023-04-01T13:35:13;6.50;;;3.70;;
44440;SDS011;30146;52.268;20.944;2023-04-01T13:37:54;9.90;;;6.00;;
44440;SDS011;30146;52.268;20.944;2023-04-01T13:40:48;5.40;;;3.70;;
44440;SDS011;30146;52.268;20.944;2023-04-01T13:43:31;5.60;;;3.00;;
44440;SDS011;30146;52.268;20.944;2023-04-01T13:46:08;4.10;;;3.10;;
44440;SDS011;30146;52.268;20.944;2023-04-01T13:52:00;4.70;;;2.30;;
44440;SDS011;30146;52.268;20.944;2023-04-01T13:57:56;4.20;;;3.10;;
44440;SDS011;30146;52.268;20.944;2023-04-01T14:00:51;3.30;;;2.90;;
44440;SDS011;30146;52.268;20.944;2023-04-01T14:03:40;3.00;;;2.70;;
44440;SDS011;30146;52.268;20.944;2023-04-01T14:12:32;4.50;;;3.20;;
44440;SDS011;30146;52.268;20.944;2023-04-01T14:15:24;5.80;;;3.00;;
44440;SDS011;30146;52.268;20.944;2023-04-01T14:18:15;3.20;;;2.70;;
44440;SDS011;30146;52.268;20.944;2023-04-01T14:21:06;14.70;;;11.30;;
44440;SDS011;30146;52.268;20.944;2023-04-01T14:24:01;8.20;;;5.50;;
44440;SDS011;30146;52.268;20.944;2023-04-01T14:26:54;4.30;;;3.10;;
44440;SDS011;30146;52.268;20.944;2023-04-01T14:29:45;5.20;;;3.20;;
44440;SDS011;30146;52.268;20.944;2023-04-01T14:32:31;4.50;;;3.30;;
44440;SDS011;30146;52.268;20.944;2023-04-01T14:35:20;3.70;;;2.90;;
44440;SDS011;30146;52.268;20.944;2023-04-01T14:41:31;4.60;;;2.90;;
44440;SDS011;30146;52.268;20.944;2023-04-01T14:47:33;3.90;;;3.10;;
44440;SDS011;30146;52.268;20.944;2023-04-01T14:50:13;4.50;;;3.10;;
44440;SDS011;30146;52.268;20.944;2023-04-01T14:52:49;4.60;;;3.40;;
44440;SDS011;30146;52.268;20.944;2023-04-01T14:55:29;2.70;;;2.50;;
44440;SDS011;30146;52.268;20.944;2023-04-01T14:58:12;4.10;;;2.90;;
44440;SDS011;30146;52.268;20.944;2023-04-01T15:00:52;4.50;;;3.70;;
44440;SDS011;30146;52.268;20.944;2023-04-01T15:03:31;4.60;;;3.40;;
44440;SDS011;30146;52.268;20.944;2023-04-01T15:06:27;4.90;;;3.10;;
44440;SDS011;30146;52.268;20.944;2023-04-01T15:09:16;3.90;;;3.20;;
44440;SDS011;30146;52.268;20.944;2023-04-01T15:11:58;7.60;;;6.20;;
44440;SDS011;30146;52.268;20.944;2023-04-01T15:14:41;4.90;;;3.70;;
44440;SDS011;30146;52.268;20.944;2023-04-01T15:17:21;4.30;;;2.70;;
44440;SDS011;30146;52.268;20.944;2023-04-01T15:20:13;3.10;;;2.80;;
44440;SDS011;30146;52.268;20.944;2023-04-01T15:23:04;4.00;;;2.90;;
44440;SDS011;30146;52.268;20.944;2023-04-01T15:25:57;5.10;;;4.20;;
44440;SDS011;30146;52.268;20.944;2023-04-01T15:29:09;7.50;;;3.60;;
44440;SDS011;30146;52.268;20.944;2023-04-01T15:31:55;4.40;;;3.10;;
44440;SDS011;30146;52.268;20.944;2023-04-01T15:34:36;3.70;;;3.30;;
44440;SDS011;30146;52.268;20.944;2023-04-01T15:37:14;4.20;;;3.80;;
44440;SDS011;30146;52.268;20.944;2023-04-01T15:39:58;3.40;;;2.90;;
44440;SDS011;30146;52.268;20.944;2023-04-01T15:42:50;3.60;;;3.00;;
44440;SDS011;30146;52.268;20.944;2023-04-01T15:45:35;3.60;;;2.70;;
44440;SDS011;30146;52.268;20.944;2023-04-01T15:48:27;3.20;;;2.50;;
44440;SDS011;30146;52.268;20.944;2023-04-01T15:51:19;7.90;;;3.40;;
44440;SDS011;30146;52.268;20.944;2023-04-01T15:57:28;4.20;;;2.50;;
44440;SDS011;30146;52.268;20.944;2023-04-01T16:06:07;3.80;;;3.00;;
44440;SDS011;30146;52.268;20.944;2023-04-01T16:11:52;6.60;;;4.00;;
44440;SDS011;30146;52.268;20.944;2023-04-01T16:14:36;4.20;;;3.50;;
44440;SDS011;30146;52.268;20.944;2023-04-01T16:17:26;4.80;;;3.10;;
44440;SDS011;30146;52.268;20.944;2023-04-01T16:20:23;6.20;;;3.40;;
44440;SDS011;30146;52.268;20.944;2023-04-01T16:23:12;2.90;;;2.50;;
44440;SDS011;30146;52.268;20.944;2023-04-01T16:25:49;7.00;;;3.30;;
44440;SDS011;30146;52.268;20.944;2023-04-01T16:28:29;5.90;;;2.80;;
44440;SDS011;30146;52.268;20.944;2023-04-01T16:31:23;3.20;;;2.60;;
44440;SDS011;30146;52.268;20.944;2023-04-01T16:36:41;3.80;;;2.50;;
44440;SDS011;30146;52.268;20.944;2023-04-01T16:39:20;2.80;;;1.90;;
44440;SDS011;30146;52.268;20.944;2023-04-01T16:42:13;7.00;;;2.70;;
44440;SDS011;30146;52.268;20.944;2023-04-01T16:45:15;3.30;;;2.60;;
44440;SDS011;30146;52.268;20.944;2023-04-01T16:47:54;4.60;;;3.10;;
44440;SDS011;30146;52.268;20.944;2023-04-01T16:50:29;4.00;;;2.70;;
44440;SDS011;30146;52.268;20.944;2023-04-01T16:53:16;3.40;;;2.60;;
44440;SDS011;30146;52.268;20.944;2023-04-01T16:55:52;3.70;;;2.80;;
44440;SDS011;30146;52.268;20.944;2023-04-01T16:58:34;2.90;;;2.40;;
44440;SDS011;30146;52.268;20.944;2023-04-01T17:01:09;3.00;;;2.50;;
44440;SDS011;30146;52.268;20.944;2023-04-01T17:03:46;5.10;;;3.70;;
44440;SDS011;30146;52.268;20.944;2023-04-01T17:06:22;3.50;;;3.00;;
44440;SDS011;30146;52.268;20.944;2023-04-01T17:09:04;7.30;;;3.60;;
44440;SDS011;30146;52.268;20.944;2023-04-01T17:11:49;3.90;;;3.20;;
44440;SDS011;30146;52.268;20.944;2023-04-01T17:20:14;5.70;;;3.80;;
44440;SDS011;30146;52.268;20.944;2023-04-01T17:22:56;5.60;;;4.10;;
44440;SDS011;30146;52.268;20.944;2023-04-01T17:25:44;7.90;;;5.80;;
44440;SDS011;30146;52.268;20.944;2023-04-01T17:28:29;8.00;;;5.50;;
44440;SDS011;30146;52.268;20.944;2023-04-01T17:36:53;7.00;;;5.60;;
44440;SDS011;30146;52.268;20.944;2023-04-01T17:39:40;7.80;;;5.00;;
44440;SDS011;30146;52.268;20.944;2023-04-01T17:42:33;8.30;;;5.10;;
44440;SDS011;30146;52.268;20.944;2023-04-01T17:45:16;6.50;;;5.70;;
44440;SDS011;30146;52.268;20.944;2023-04-01T17:47:55;7.80;;;6.50;;
44440;SDS011;30146;52.268;20.944;2023-04-01T17:50:42;10.00;;;6.00;;
44440;SDS011;30146;52.268;20.944;2023-04-01T17:53:26;6.50;;;5.60;;
44440;SDS011;30146;52.268;20.944;2023-04-01T17:56:13;8.20;;;6.50;;
44440;SDS011;30146;52.268;20.944;2023-04-01T17:58:53;8.20;;;6.10;;
44440;SDS011;30146;52.268;20.944;2023-04-01T18:01:33;12.00;;;6.30;;
44440;SDS011;30146;52.268;20.944;2023-04-01T18:04:30;9.00;;;7.00;;
44440;SDS011;30146;52.268;20.944;2023-04-01T18:10:33;9.00;;;6.90;;
44440;SDS011;30146;52.268;20.944;2023-04-01T18:16:24;8.80;;;6.90;;
44440;SDS011;30146;52.268;20.944;2023-04-01T18:19:06;7.70;;;6.90;;
44440;SDS011;30146;52.268;20.944;2023-04-01T18:21:48;8.90;;;7.10;;
44440;SDS011;30146;52.268;20.944;2023-04-01T18:24:24;10.10;;;7.60;;
44440;SDS011;30146;52.268;20.944;2023-04-01T18:27:04;14.30;;;9.40;;
44440;SDS011;30146;52.268;20.944;2023-04-01T18:29:51;10.60;;;7.50;;
44440;SDS011;30146;52.268;20.944;2023-04-01T18:32:27;12.20;;;8.70;;
44440;SDS011;30146;52.268;20.944;2023-04-01T18:35:16;8.70;;;7.60;;
44440;SDS011;30146;52.268;20.944;2023-04-01T18:37:57;9.40;;;8.20;;